Aviation Digital Data Service (ADDS)

Output produced by METARs form (0855 UTC 23 July 2019)
found at http://www.aviationweather.gov/metar/data/
 
METAR text: OEKM 230800Z 02012KT CAVOK 31/01 Q1019 NOSIG
Conditions at: OEKM (KHAMIS MUSHAIT A, SA) observed 0800 UTC 23 July 2019
Temperature: 31.0°C (88°F)
Dewpoint: 1.0°C (34°F) [RH = 15%]
Pressure (altimeter): 30.09 inches Hg (1019.0 mb)
Winds: from the NNE (20 degrees) at 14 MPH (12 knots; 6.2 m/s)
Visibility: 6 or more miles (10+ km)
Ceiling: ceiling and visibility are OK
Clouds: unknown
Weather: no significant weather observed at this time

METAR text: OEKM 230700Z 01010KT CAVOK 32/M02 Q1020 NOSIG
Conditions at: OEKM (KHAMIS MUSHAIT A, SA) observed 0700 UTC 23 July 2019
Temperature: 32.0°C (90°F)
Dewpoint: -2.0°C (28°F) [RH = 11%]
Pressure (altimeter): 30.12 inches Hg (1020.0 mb)
Winds: from the N (10 degrees) at 12 MPH (10 knots; 5.1 m/s)
Visibility: 6 or more miles (10+ km)
Ceiling: ceiling and visibility are OK
Clouds: unknown
Weather: no significant weather observed at this time

METAR text: OEKM 230600Z 34014KT CAVOK 31/02 Q1020 NOSIG
Conditions at: OEKM (KHAMIS MUSHAIT A, SA) observed 0600 UTC 23 July 2019
Temperature: 31.0°C (88°F)
Dewpoint: 2.0°C (36°F) [RH = 16%]
Pressure (altimeter): 30.12 inches Hg (1020.0 mb)
Winds: from the NNW (340 degrees) at 16 MPH (14 knots; 7.2 m/s)
Visibility: 6 or more miles (10+ km)
Ceiling: ceiling and visibility are OK
Clouds: unknown
Weather: no significant weather observed at this time

METAR text: OEKM 230500Z 01008KT 9000 SKC 29/07 Q1020 NOSIG
Conditions at: OEKM (KHAMIS MUSHAIT A, SA) observed 0500 UTC 23 July 2019
Temperature: 29.0°C (84°F)
Dewpoint: 7.0°C (45°F) [RH = 25%]
Pressure (altimeter): 30.12 inches Hg (1020.0 mb)
Winds: from the N (10 degrees) at 9 MPH (8 knots; 4.1 m/s)
Visibility: 6 miles ( 9 km)
Ceiling: at least 12,000 feet AGL
Clouds: clear skies
Weather: no significant weather observed at this time

METAR text: OEKM 230400Z 02004KT 9000 SKC 24/09 Q1019 NOSIG
Conditions at: OEKM (KHAMIS MUSHAIT A, SA) observed 0400 UTC 23 July 2019
Temperature: 24.0°C (75°F)
Dewpoint: 9.0°C (48°F) [RH = 38%]
Pressure (altimeter): 30.09 inches Hg (1019.0 mb)
Winds: from the NNE (20 degrees) at 5 MPH (4 knots; 2.1 m/s)
Visibility: 6 miles ( 9 km)
Ceiling: at least 12,000 feet AGL
Clouds: clear skies
Weather: no significant weather observed at this time

METAR text: OEKM 230300Z 00000KT CAVOK 20/08 Q1019 NOSIG
Conditions at: OEKM (KHAMIS MUSHAIT A, SA) observed 0300 UTC 23 July 2019
Temperature: 20.0°C (68°F)
Dewpoint: 8.0°C (46°F) [RH = 46%]
Pressure (altimeter): 30.09 inches Hg (1019.0 mb)
Winds: calm
Visibility: 6 or more miles (10+ km)
Ceiling: ceiling and visibility are OK
Clouds: unknown
Weather: no significant weather observed at this time

METAR text: OEKM 230200Z 00000KT CAVOK 20/09 Q1018 NOSIG
Conditions at: OEKM (KHAMIS MUSHAIT A, SA) observed 0200 UTC 23 July 2019
Temperature: 20.0°C (68°F)
Dewpoint: 9.0°C (48°F) [RH = 49%]
Pressure (altimeter): 30.06 inches Hg (1018.0 mb)
Winds: calm
Visibility: 6 or more miles (10+ km)
Ceiling: ceiling and visibility are OK
Clouds: unknown
Weather: no significant weather observed at this time

METAR text: OEKM 230100Z 00000KT CAVOK 20/12 Q1018 NOSIG
Conditions at: OEKM (KHAMIS MUSHAIT A, SA) observed 0100 UTC 23 July 2019
Temperature: 20.0°C (68°F)
Dewpoint: 12.0°C (54°F) [RH = 60%]
Pressure (altimeter): 30.06 inches Hg (1018.0 mb)
Winds: calm
Visibility: 6 or more miles (10+ km)
Ceiling: ceiling and visibility are OK
Clouds: unknown
Weather: no significant weather observed at this time

METAR text: OEKM 230000Z 17004KT CAVOK 21/10 Q1018 NOSIG
Conditions at: OEKM (KHAMIS MUSHAIT A, SA) observed 0000 UTC 23 July 2019
Temperature: 21.0°C (70°F)
Dewpoint: 10.0°C (50°F) [RH = 49%]
Pressure (altimeter): 30.06 inches Hg (1018.0 mb)
Winds: from the S (170 degrees) at 5 MPH (4 knots; 2.1 m/s)
Visibility: 6 or more miles (10+ km)
Ceiling: ceiling and visibility are OK
Clouds: unknown
Weather: no significant weather observed at this time

METAR text: OEKM 222300Z 00000KT CAVOK 22/12 Q1018 NOSIG
Conditions at: OEKM (KHAMIS MUSHAIT A, SA) observed 2300 UTC 22 July 2019
Temperature: 22.0°C (72°F)
Dewpoint: 12.0°C (54°F) [RH = 53%]
Pressure (altimeter): 30.06 inches Hg (1018.0 mb)
Winds: calm
Visibility: 6 or more miles (10+ km)
Ceiling: ceiling and visibility are OK
Clouds: unknown
Weather: no significant weather observed at this time

METAR text: OEKM 222200Z 19003KT CAVOK 23/14 Q1018 NOSIG
Conditions at: OEKM (KHAMIS MUSHAIT A, SA) observed 2200 UTC 22 July 2019
Temperature: 23.0°C (73°F)
Dewpoint: 14.0°C (57°F) [RH = 57%]
Pressure (altimeter): 30.06 inches Hg (1018.0 mb)
Winds: from the S (190 degrees) at 3 MPH (3 knots; 1.5 m/s)
Visibility: 6 or more miles (10+ km)
Ceiling: ceiling and visibility are OK
Clouds: unknown
Weather: no significant weather observed at this time

METAR text: OEKM 222100Z 21003KT CAVOK 23/12 Q1019 NOSIG
Conditions at: OEKM (KHAMIS MUSHAIT A, SA) observed 2100 UTC 22 July 2019
Temperature: 23.0°C (73°F)
Dewpoint: 12.0°C (54°F) [RH = 50%]
Pressure (altimeter): 30.09 inches Hg (1019.0 mb)
Winds: from the SSW (210 degrees) at 3 MPH (3 knots; 1.5 m/s)
Visibility: 6 or more miles (10+ km)
Ceiling: ceiling and visibility are OK
Clouds: unknown
Weather: no significant weather observed at this time

METAR text: OEKM 222000Z 22006KT CAVOK 26/12 Q1020 NOSIG
Conditions at: OEKM (KHAMIS MUSHAIT A, SA) observed 2000 UTC 22 July 2019
Temperature: 26.0°C (79°F)
Dewpoint: 12.0°C (54°F) [RH = 42%]
Pressure (altimeter): 30.12 inches Hg (1020.0 mb)
Winds: from the SW (220 degrees) at 7 MPH (6 knots; 3.1 m/s)
Visibility: 6 or more miles (10+ km)
Ceiling: ceiling and visibility are OK
Clouds: unknown
Weather: no significant weather observed at this time

METAR text: OEKM 221900Z 00000KT CAVOK 25/11 Q1020 NOSIG
Conditions at: OEKM (KHAMIS MUSHAIT A, SA) observed 1900 UTC 22 July 2019
Temperature: 25.0°C (77°F)
Dewpoint: 11.0°C (52°F) [RH = 41%]
Pressure (altimeter): 30.12 inches Hg (1020.0 mb)
Winds: calm
Visibility: 6 or more miles (10+ km)
Ceiling: ceiling and visibility are OK
Clouds: unknown
Weather: no significant weather observed at this time

METAR text: OEKM 221800Z 24005KT CAVOK 26/09 Q1019 NOSIG
Conditions at: OEKM (KHAMIS MUSHAIT A, SA) observed 1800 UTC 22 July 2019
Temperature: 26.0°C (79°F)
Dewpoint: 9.0°C (48°F) [RH = 34%]
Pressure (altimeter): 30.09 inches Hg (1019.0 mb)
Winds: from the WSW (240 degrees) at 6 MPH (5 knots; 2.6 m/s)
Visibility: 6 or more miles (10+ km)
Ceiling: ceiling and visibility are OK
Clouds: unknown
Weather: no significant weather observed at this time

METAR text: OEKM 221700Z 24008KT 9000 SCT022 FEW025CB 26/11 Q1019 NOSIG
Conditions at: OEKM (KHAMIS MUSHAIT A, SA) observed 1700 UTC 22 July 2019
Temperature: 26.0°C (79°F)
Dewpoint: 11.0°C (52°F) [RH = 39%]
Pressure (altimeter): 30.09 inches Hg (1019.0 mb)
Winds: from the WSW (240 degrees) at 9 MPH (8 knots; 4.1 m/s)
Visibility: 6 miles ( 9 km)
Ceiling: at least 12,000 feet AGL
Clouds: scattered clouds at 2200 feet AGL
few clouds at 2500 feet AGL
Weather: no significant weather observed at this time

METAR text: OEKM 221600Z 24010KT 9000 SCT022 27/14 Q1019 NOSIG
Conditions at: OEKM (KHAMIS MUSHAIT A, SA) observed 1600 UTC 22 July 2019
Temperature: 27.0°C (81°F)
Dewpoint: 14.0°C (57°F) [RH = 45%]
Pressure (altimeter): 30.09 inches Hg (1019.0 mb)
Winds: from the WSW (240 degrees) at 12 MPH (10 knots; 5.1 m/s)
Visibility: 6 miles ( 9 km)
Ceiling: at least 12,000 feet AGL
Clouds: scattered clouds at 2200 feet AGL
Weather: no significant weather observed at this time

METAR text: OEKM 221500Z 24010KT 8000 SCT022 29/14 Q1017 NOSIG
Conditions at: OEKM (KHAMIS MUSHAIT A, SA) observed 1500 UTC 22 July 2019
Temperature: 29.0°C (84°F)
Dewpoint: 14.0°C (57°F) [RH = 40%]
Pressure (altimeter): 30.03 inches Hg (1017.0 mb)
Winds: from the WSW (240 degrees) at 12 MPH (10 knots; 5.1 m/s)
Visibility: 5 miles ( 8 km)
Ceiling: at least 12,000 feet AGL
Clouds: scattered clouds at 2200 feet AGL
Weather: no significant weather observed at this time

METAR text: OEKM 221400Z 24010KT 9999 SCT020 FEW022CB 31/12 Q1017 NOSIG
Conditions at: OEKM (KHAMIS MUSHAIT A, SA) observed 1400 UTC 22 July 2019
Temperature: 31.0°C (88°F)
Dewpoint: 12.0°C (54°F) [RH = 31%]
Pressure (altimeter): 30.03 inches Hg (1017.0 mb)
Winds: from the WSW (240 degrees) at 12 MPH (10 knots; 5.1 m/s)
Visibility: 6 or more miles (10+ km)
Ceiling: at least 12,000 feet AGL
Clouds: scattered clouds at 2000 feet AGL
few clouds at 2200 feet AGL
Weather: no significant weather observed at this time

METAR text: OEKM 221300Z 03012KT 9999 SCT020 FEW022CB 33/M03 Q1017 NOSIG
Conditions at: OEKM (KHAMIS MUSHAIT A, SA) observed 1300 UTC 22 July 2019
Temperature: 33.0°C (91°F)
Dewpoint: -3.0°C (27°F) [RH = 10%]
Pressure (altimeter): 30.03 inches Hg (1017.0 mb)
Winds: from the NNE (30 degrees) at 14 MPH (12 knots; 6.2 m/s)
Visibility: 6 or more miles (10+ km)
Ceiling: at least 12,000 feet AGL
Clouds: scattered clouds at 2000 feet AGL
few clouds at 2200 feet AGL
Weather: no significant weather observed at this time

METAR text: OEKM 221200Z 03015KT 9999 SCT020 FEW022CB 33/01 Q1017 NOSIG
Conditions at: OEKM (KHAMIS MUSHAIT A, SA) observed 1200 UTC 22 July 2019
Temperature: 33.0°C (91°F)
Dewpoint: 1.0°C (34°F) [RH = 13%]
Pressure (altimeter): 30.03 inches Hg (1017.0 mb)
Winds: from the NNE (30 degrees) at 17 MPH (15 knots; 7.7 m/s)
Visibility: 6 or more miles (10+ km)
Ceiling: at least 12,000 feet AGL
Clouds: scattered clouds at 2000 feet AGL
few clouds at 2200 feet AGL
Weather: no significant weather observed at this time

METAR text: OEKM 221100Z 09008KT 9999 SCT022 FEW025CB 34/05 Q1018 NOSIG
Conditions at: OEKM (KHAMIS MUSHAIT A, SA) observed 1100 UTC 22 July 2019
Temperature: 34.0°C (93°F)
Dewpoint: 5.0°C (41°F) [RH = 16%]
Pressure (altimeter): 30.06 inches Hg (1018.0 mb)
Winds: from the E (90 degrees) at 9 MPH (8 knots; 4.1 m/s)
Visibility: 6 or more miles (10+ km)
Ceiling: at least 12,000 feet AGL
Clouds: scattered clouds at 2200 feet AGL
few clouds at 2500 feet AGL
Weather: no significant weather observed at this time

METAR text: OEKM 221000Z 09012KT 9999 SCT022 35/04 Q1019 NOSIG
Conditions at: OEKM (KHAMIS MUSHAIT A, SA) observed 1000 UTC 22 July 2019
Temperature: 35.0°C (95°F)
Dewpoint: 4.0°C (39°F) [RH = 14%]
Pressure (altimeter): 30.09 inches Hg (1019.0 mb)
Winds: from the E (90 degrees) at 14 MPH (12 knots; 6.2 m/s)
Visibility: 6 or more miles (10+ km)
Ceiling: at least 12,000 feet AGL
Clouds: scattered clouds at 2200 feet AGL
Weather: no significant weather observed at this time

METAR text: OEKM 220900Z 08012KT 9999 FEW022 33/03 Q1020 NOSIG
Conditions at: OEKM (KHAMIS MUSHAIT A, SA) observed 0900 UTC 22 July 2019
Temperature: 33.0°C (91°F)
Dewpoint: 3.0°C (37°F) [RH = 15%]
Pressure (altimeter): 30.12 inches Hg (1020.0 mb)
Winds: from the E (80 degrees) at 14 MPH (12 knots; 6.2 m/s)
Visibility: 6 or more miles (10+ km)
Ceiling: at least 12,000 feet AGL
Clouds: few clouds at 2200 feet AGL
Weather: no significant weather observed at this time

METAR text: OEKM 220800Z 03008KT CAVOK 33/03 Q1020 NOSIG
Conditions at: OEKM (KHAMIS MUSHAIT A, SA) observed 0800 UTC 22 July 2019
Temperature: 33.0°C (91°F)
Dewpoint: 3.0°C (37°F) [RH = 15%]
Pressure (altimeter): 30.12 inches Hg (1020.0 mb)
Winds: from the NNE (30 degrees) at 9 MPH (8 knots; 4.1 m/s)
Visibility: 6 or more miles (10+ km)
Ceiling: ceiling and visibility are OK
Clouds: unknown
Weather: no significant weather observed at this time

METAR text: OEKM 220700Z 08008KT CAVOK 30/04 Q1020 NOSIG
Conditions at: OEKM (KHAMIS MUSHAIT A, SA) observed 0700 UTC 22 July 2019
Temperature: 30.0°C (86°F)
Dewpoint: 4.0°C (39°F) [RH = 19%]
Pressure (altimeter): 30.12 inches Hg (1020.0 mb)
Winds: from the E (80 degrees) at 9 MPH (8 knots; 4.1 m/s)
Visibility: 6 or more miles (10+ km)
Ceiling: ceiling and visibility are OK
Clouds: unknown
Weather: no significant weather observed at this time

METAR text: OEKM 220600Z 05004KT CAVOK 25/M01 Q1020 NOSIG
Conditions at: OEKM (KHAMIS MUSHAIT A, SA) observed 0600 UTC 22 July 2019
Temperature: 25.0°C (77°F)
Dewpoint: -1.0°C (30°F) [RH = 18%]
Pressure (altimeter): 30.12 inches Hg (1020.0 mb)
Winds: from the NE (50 degrees) at 5 MPH (4 knots; 2.1 m/s)
Visibility: 6 or more miles (10+ km)
Ceiling: ceiling and visibility are OK
Clouds: unknown
Weather: no significant weather observed at this time

METAR text: OEKM 220500Z 05004KT CAVOK 25/M01 Q1020 NOSIG
Conditions at: OEKM (KHAMIS MUSHAIT A, SA) observed 0500 UTC 22 July 2019
Temperature: 25.0°C (77°F)
Dewpoint: -1.0°C (30°F) [RH = 18%]
Pressure (altimeter): 30.12 inches Hg (1020.0 mb)
Winds: from the NE (50 degrees) at 5 MPH (4 knots; 2.1 m/s)
Visibility: 6 or more miles (10+ km)
Ceiling: ceiling and visibility are OK
Clouds: unknown
Weather: no significant weather observed at this time

METAR text: OEKM 220300Z 00000KT CAVOK 20/01 Q1019 NOSIG
Conditions at: OEKM (KHAMIS MUSHAIT A, SA) observed 0300 UTC 22 July 2019
Temperature: 20.0°C (68°F)
Dewpoint: 1.0°C (34°F) [RH = 28%]
Pressure (altimeter): 30.09 inches Hg (1019.0 mb)
Winds: calm
Visibility: 6 or more miles (10+ km)
Ceiling: ceiling and visibility are OK
Clouds: unknown
Weather: no significant weather observed at this time

METAR text: OEKM 220200Z 00000KT CAVOK 22/M02 Q1019 NOSIG
Conditions at: OEKM (KHAMIS MUSHAIT A, SA) observed 0200 UTC 22 July 2019
Temperature: 22.0°C (72°F)
Dewpoint: -2.0°C (28°F) [RH = 20%]
Pressure (altimeter): 30.09 inches Hg (1019.0 mb)
Winds: calm
Visibility: 6 or more miles (10+ km)
Ceiling: ceiling and visibility are OK
Clouds: unknown
Weather: no significant weather observed at this time

METAR text: OEKM 220100Z 00000KT CAVOK 23/M02 Q1019 NOSIG
Conditions at: OEKM (KHAMIS MUSHAIT A, SA) observed 0100 UTC 22 July 2019
Temperature: 23.0°C (73°F)
Dewpoint: -2.0°C (28°F) [RH = 19%]
Pressure (altimeter): 30.09 inches Hg (1019.0 mb)
Winds: calm
Visibility: 6 or more miles (10+ km)
Ceiling: ceiling and visibility are OK
Clouds: unknown
Weather: no significant weather observed at this time

METAR text: OEKM 220000Z 00000KT CAVOK 24/M04 Q1019 NOSIG
Conditions at: OEKM (KHAMIS MUSHAIT A, SA) observed 0000 UTC 22 July 2019
Temperature: 24.0°C (75°F)
Dewpoint: -4.0°C (25°F) [RH = 15%]
Pressure (altimeter): 30.09 inches Hg (1019.0 mb)
Winds: calm
Visibility: 6 or more miles (10+ km)
Ceiling: ceiling and visibility are OK
Clouds: unknown
Weather: no significant weather observed at this time

METAR text: OEKM 212300Z 06005KT CAVOK 25/M05 Q1019 NOSIG
Conditions at: OEKM (KHAMIS MUSHAIT A, SA) observed 2300 UTC 21 July 2019
Temperature: 25.0°C (77°F)
Dewpoint: -5.0°C (23°F) [RH = 13%]
Pressure (altimeter): 30.09 inches Hg (1019.0 mb)
Winds: from the ENE (60 degrees) at 6 MPH (5 knots; 2.6 m/s)
Visibility: 6 or more miles (10+ km)
Ceiling: ceiling and visibility are OK
Clouds: unknown
Weather: no significant weather observed at this time

METAR text: OEKM 212200Z 06008KT CAVOK 26/M04 Q1019 NOSIG
Conditions at: OEKM (KHAMIS MUSHAIT A, SA) observed 2200 UTC 21 July 2019
Temperature: 26.0°C (79°F)
Dewpoint: -4.0°C (25°F) [RH = 14%]
Pressure (altimeter): 30.09 inches Hg (1019.0 mb)
Winds: from the ENE (60 degrees) at 9 MPH (8 knots; 4.1 m/s)
Visibility: 6 or more miles (10+ km)
Ceiling: ceiling and visibility are OK
Clouds: unknown
Weather: no significant weather observed at this time

METAR text: OEKM 212100Z 06006KT CAVOK 27/M04 Q1020 NOSIG
Conditions at: OEKM (KHAMIS MUSHAIT A, SA) observed 2100 UTC 21 July 2019
Temperature: 27.0°C (81°F)
Dewpoint: -4.0°C (25°F) [RH = 13%]
Pressure (altimeter): 30.12 inches Hg (1020.0 mb)
Winds: from the ENE (60 degrees) at 7 MPH (6 knots; 3.1 m/s)
Visibility: 6 or more miles (10+ km)
Ceiling: ceiling and visibility are OK
Clouds: unknown
Weather: no significant weather observed at this time

Forecast for: COR
Text: TAF COR OEKM 230500Z 2306/2315 03012KT 8000 FEW020
Forecast period: 0600 to 1500 UTC 23 July 2019
Forecast type: FROM: standard forecast or significant change
Winds: from the NNE (30 degrees) at 14 MPH (12 knots; 6.2 m/s)
Visibility: 5 miles (8 km)
Ceiling: at least 12,000 feet AGL
Clouds: few clouds at 2000 feet AGL
Weather: no significant weather forecast for this period
Text: PROB30
Forecast period: 0600 to 1000 UTC 23 July 2019
Forecast type: TEMPORARY: The following changes expected for less than half the time period
Visibility: 2.49 miles (4.01 km)
Ceiling: unknown
Clouds: missing
Weather: DU  (widespread dust)
Text: TEMPO 2306/2310 4000 DU
Forecast period: 1000 to 1500 UTC 23 July 2019
Forecast type: TEMPORARY: The following changes expected for less than half the time period
Visibility: missing
Ceiling: at least 12,000 feet AGL
Clouds: scattered clouds at 2000 feet AGL
few clouds at 2500 feet AGL
Weather: no significant weather forecast for this period